Time;durP1;ratioP1;P1;durP2;ratioP2;P2;SDS_P1;SDS_P2;PMS_P1;PMS_P2;Temp;Humidity;BMP_temperature;BMP_pressure;BME280_temperature;BME280_humidity;BME280_pressure;Samples;Min_cycle;Max_cycle;Signal;HPM_P1;HPM_P2
2023/05/21 00:00:11;;;;;;;0.80;0.68;;;20.50;64.20;;;;;;5051441;28;20047;-78
2023/05/21 00:02:38;;;;;;;0.57;0.57;;;20.50;64.10;;;;;;5061656;28;20076;-78
2023/05/21 00:05:04;;;;;;;1.00;0.95;;;20.50;64.00;;;;;;5054679;28;20051;-78
2023/05/21 00:07:31;;;;;;;0.63;0.63;;;20.50;64.20;;;;;;5052964;28;20123;-78
2023/05/21 00:09:57;;;;;;;0.85;0.70;;;20.50;64.30;;;;;;5052630;28;20088;-78
2023/05/21 00:12:23;;;;;;;0.80;0.80;;;20.50;64.20;;;;;;5051641;28;20075;-78
2023/05/21 00:14:48;;;;;;;0.80;0.80;;;20.40;64.10;;;;;;5050521;28;20041;-77
2023/05/21 00:17:14;;;;;;;0.77;0.75;;;20.40;64.10;;;;;;5052211;28;20499;-78
2023/05/21 00:19:40;;;;;;;0.68;0.68;;;20.40;64.10;;;;;;5047828;28;20149;-78
2023/05/21 00:22:06;;;;;;;0.60;0.60;;;20.40;64.10;;;;;;5053266;28;20037;-78
2023/05/21 00:24:31;;;;;;;0.82;0.82;;;20.40;64.10;;;;;;5049756;28;20536;-78
2023/05/21 00:26:57;;;;;;;0.75;0.75;;;20.40;64.10;;;;;;5055448;28;20045;-78
2023/05/21 00:29:22;;;;;;;0.90;0.90;;;20.40;64.10;;;;;;5054006;28;20041;-78
2023/05/21 00:31:49;;;;;;;0.70;0.70;;;20.40;64.50;;;;;;5048828;28;20075;-78
2023/05/21 00:34:15;;;;;;;0.77;0.77;;;20.40;64.00;;;;;;5060893;28;20040;-78
2023/05/21 00:36:44;;;;;;;0.90;0.90;;;20.40;64.00;;;;;;5030393;28;20099;-78
2023/05/21 00:39:10;;;;;;;1.00;1.00;;;20.40;64.00;;;;;;5054077;28;20052;-78
2023/05/21 00:41:37;;;;;;;1.15;0.90;;;20.40;64.10;;;;;;5055987;28;20040;-78
2023/05/21 00:44:02;;;;;;;0.82;0.82;;;20.40;64.10;;;;;;5056409;28;20053;-78
2023/05/21 00:46:28;;;;;;;0.80;0.80;;;20.40;64.00;;;;;;5062705;28;20537;-78
2023/05/21 00:48:53;;;;;;;0.80;0.80;;;20.40;64.10;;;;;;5054292;28;20638;-78
2023/05/21 00:51:20;;;;;;;1.85;0.82;;;20.40;64.00;;;;;;5072304;28;20513;-78
2023/05/21 00:53:48;;;;;;;0.73;0.73;;;20.40;63.90;;;;;;5066220;28;20478;-78
2023/05/21 00:56:14;;;;;;;0.90;0.80;;;20.40;64.00;;;;;;5068444;28;20041;-78
2023/05/21 00:58:39;;;;;;;0.77;0.77;;;20.40;64.00;;;;;;5068517;28;20048;-78
2023/05/21 01:01:05;;;;;;;1.10;1.00;;;20.40;64.00;;;;;;5025884;28;20047;-78
2023/05/21 01:03:37;;;;;;;0.70;0.70;;;20.40;64.00;;;;;;5055950;28;20052;-78
2023/05/21 01:06:04;;;;;;;0.68;0.68;;;20.40;63.90;;;;;;5051384;28;20530;-78
2023/05/21 01:08:29;;;;;;;1.27;0.70;;;20.40;64.00;;;;;;5053398;28;20041;-78
2023/05/21 01:10:55;;;;;;;0.90;0.90;;;20.40;63.90;;;;;;5031059;28;20530;-78
2023/05/21 01:13:21;;;;;;;0.50;0.50;;;20.40;64.00;;;;;;5047652;28;20048;-78
2023/05/21 01:15:48;;;;;;;0.63;0.63;;;20.30;63.90;;;;;;5067300;28;20040;-78
2023/05/21 01:18:14;;;;;;;0.77;0.77;;;20.40;64.00;;;;;;5028078;28;20159;-78
2023/05/21 01:20:46;;;;;;;0.70;0.70;;;20.30;63.90;;;;;;5065209;28;20120;-78
2023/05/21 01:23:17;;;;;;;0.70;0.70;;;20.40;64.70;;;;;;5051834;28;20052;-78
2023/05/21 01:25:43;;;;;;;0.70;0.70;;;20.40;64.70;;;;;;5033933;28;20140;-78
2023/05/21 01:28:09;;;;;;;0.80;0.80;;;20.40;63.90;;;;;;5056118;28;20128;-78
2023/05/21 01:30:34;;;;;;;1.00;0.85;;;20.30;63.80;;;;;;5050110;28;20045;-78
2023/05/21 01:33:13;;;;;;;1.35;0.75;;;20.30;63.90;;;;;;5014455;28;20554;-77
2023/05/21 01:35:43;;;;;;;0.95;0.90;;;20.30;63.90;;;;;;5044544;28;20402;-78
2023/05/21 01:38:19;;;;;;;0.80;0.80;;;20.30;63.90;;;;;;5051349;28;20144;-78
2023/05/21 01:40:46;;;;;;;0.80;0.80;;;20.30;63.90;;;;;;5050965;28;20052;-78
2023/05/21 01:43:12;;;;;;;0.90;0.90;;;20.30;63.90;;;;;;5049288;28;20047;-77
2023/05/21 01:45:39;;;;;;;2.17;0.60;;;20.30;63.90;;;;;;5048931;28;20037;-78
2023/05/21 01:48:05;;;;;;;0.60;0.60;;;20.30;63.90;;;;;;5021575;28;20040;-78
2023/05/21 01:50:31;;;;;;;4.53;0.80;;;20.30;63.80;;;;;;5037839;28;20076;-78
2023/05/21 01:52:57;;;;;;;0.80;0.80;;;20.30;63.90;;;;;;5034905;28;20132;-78
2023/05/21 01:55:25;;;;;;;0.75;0.75;;;20.30;63.80;;;;;;5064102;28;20061;-78
2023/05/21 01:57:52;;;;;;;1.05;0.95;;;20.30;63.80;;;;;;5040489;28;20037;-78
2023/05/21 02:00:21;;;;;;;0.90;0.90;;;20.30;63.80;;;;;;5051235;28;20094;-78
2023/05/21 02:02:47;;;;;;;0.70;0.70;;;20.30;64.60;;;;;;5067769;28;20044;-78
2023/05/21 02:05:13;;;;;;;0.80;0.80;;;20.30;63.80;;;;;;5041665;28;20037;-78
2023/05/21 02:07:39;;;;;;;1.70;0.68;;;20.30;63.70;;;;;;5051057;28;20115;-78
2023/05/21 02:10:05;;;;;;;0.60;0.60;;;20.30;63.80;;;;;;5049323;28;20040;-77
2023/05/21 02:12:31;;;;;;;0.80;0.80;;;20.30;63.90;;;;;;5048346;28;20044;-78
2023/05/21 02:14:56;;;;;;;0.70;0.60;;;20.30;63.80;;;;;;5053492;28;20041;-77
2023/05/21 02:17:23;;;;;;;0.85;0.85;;;20.30;63.80;;;;;;5010982;28;20052;-78
2023/05/21 02:19:49;;;;;;;1.10;0.88;;;20.30;63.80;;;;;;5054039;28;20509;-78
2023/05/21 02:22:14;;;;;;;0.75;0.73;;;20.30;64.60;;;;;;5052285;28;20075;-78
2023/05/21 02:24:40;;;;;;;0.90;0.90;;;20.30;63.90;;;;;;5067375;28;20405;-78
2023/05/21 02:27:05;;;;;;;1.40;1.10;;;20.30;63.90;;;;;;5050719;28;20473;-77
2023/05/21 02:29:31;;;;;;;0.80;0.80;;;20.30;63.90;;;;;;5046375;28;20041;-77
2023/05/21 02:31:57;;;;;;;0.80;0.80;;;20.30;63.90;;;;;;5047166;28;20053;-77
2023/05/21 02:34:23;;;;;;;1.00;0.98;;;20.30;63.90;;;;;;5057396;28;20041;-78
2023/05/21 02:36:51;;;;;;;0.63;0.63;;;20.30;64.00;;;;;;5055417;28;20044;-78
2023/05/21 02:39:18;;;;;;;1.05;0.80;;;20.30;63.90;;;;;;5062290;28;20041;-78
2023/05/21 02:41:44;;;;;;;0.80;0.80;;;20.30;64.00;;;;;;5049441;28;20056;-78
2023/05/21 02:44:10;;;;;;;0.88;0.88;;;20.30;64.00;;;;;;5045708;28;20044;-78
2023/05/21 02:46:35;;;;;;;0.90;0.90;;;20.30;64.00;;;;;;5051873;28;20047;-78
2023/05/21 02:49:01;;;;;;;0.85;0.85;;;20.30;64.00;;;;;;5050881;28;20044;-78
2023/05/21 02:51:27;;;;;;;0.95;0.95;;;20.30;64.00;;;;;;5058897;28;20490;-78
2023/05/21 02:53:52;;;;;;;1.40;1.00;;;20.30;64.00;;;;;;5050208;28;20041;-78
2023/05/21 02:56:18;;;;;;;1.13;1.05;;;20.30;64.00;;;;;;5054730;28;20120;-78
2023/05/21 02:58:44;;;;;;;0.63;0.63;;;20.30;64.00;;;;;;5048760;28;20044;-78
2023/05/21 03:01:10;;;;;;;0.95;0.95;;;20.30;64.00;;;;;;5047657;28;20049;-78
2023/05/21 03:03:35;;;;;;;1.00;1.00;;;20.30;64.00;;;;;;5052610;28;20085;-78
2023/05/21 03:06:01;;;;;;;1.10;1.00;;;20.30;64.00;;;;;;5046680;28;20565;-78
2023/05/21 03:08:26;;;;;;;3.00;1.27;;;20.30;64.00;;;;;;5052453;28;20040;-78
2023/05/21 03:10:52;;;;;;;1.20;0.95;;;20.20;63.90;;;;;;5049029;28;20064;-78
2023/05/21 03:13:18;;;;;;;0.80;0.70;;;20.20;64.00;;;;;;5057395;28;20068;-78
2023/05/21 03:15:45;;;;;;;1.83;0.80;;;20.30;64.00;;;;;;5049814;28;20501;-78
2023/05/21 03:18:11;;;;;;;1.00;1.00;;;20.20;63.90;;;;;;5040431;28;20058;-78
2023/05/21 03:20:42;;;;;;;0.75;0.75;;;20.20;64.00;;;;;;5057037;28;20082;-78
2023/05/21 03:23:08;;;;;;;0.55;0.55;;;20.30;64.00;;;;;;5052976;28;20044;-78
2023/05/21 03:25:35;;;;;;;0.70;0.70;;;20.20;64.00;;;;;;5049195;28;20036;-78
2023/05/21 03:28:01;;;;;;;1.58;0.90;;;20.30;64.10;;;;;;5050825;28;20052;-77
2023/05/21 03:30:26;;;;;;;0.82;0.77;;;20.30;64.10;;;;;;5046383;28;20414;-78
2023/05/21 03:32:52;;;;;;;0.73;0.73;;;20.30;64.10;;;;;;5052383;28;20129;-78
2023/05/21 03:35:17;;;;;;;1.20;0.98;;;20.30;64.10;;;;;;5068684;28;20039;-78
2023/05/21 03:37:43;;;;;;;0.80;0.80;;;20.20;64.00;;;;;;5056313;28;20044;-78
2023/05/21 03:40:09;;;;;;;0.75;0.75;;;20.30;64.10;;;;;;5056325;28;20586;-78
2023/05/21 03:42:35;;;;;;;0.82;0.80;;;20.30;64.10;;;;;;5054020;28;20051;-78
2023/05/21 03:45:01;;;;;;;0.77;0.77;;;20.30;64.20;;;;;;5053648;28;20036;-77
2023/05/21 03:47:27;;;;;;;0.85;0.85;;;20.20;64.10;;;;;;5050012;28;20498;-78
2023/05/21 03:49:52;;;;;;;0.93;0.88;;;20.20;64.00;;;;;;5034155;28;20053;-78
2023/05/21 03:52:18;;;;;;;0.80;0.77;;;20.20;64.20;;;;;;5055032;28;20099;-78
2023/05/21 03:54:43;;;;;;;0.88;0.88;;;20.20;64.10;;;;;;5050776;28;20040;-78
2023/05/21 03:57:09;;;;;;;0.88;0.88;;;20.20;64.10;;;;;;5046365;28;20492;-77
2023/05/21 03:59:34;;;;;;;1.50;1.00;;;20.30;64.10;;;;;;5049410;28;20055;-78
2023/05/21 04:02:00;;;;;;;0.80;0.80;;;20.20;64.00;;;;;;5058700;28;20147;-78
2023/05/21 04:04:28;;;;;;;0.98;0.95;;;20.30;64.10;;;;;;5054630;28;20849;-78
2023/05/21 04:06:54;;;;;;;0.57;0.57;;;20.20;64.10;;;;;;5057616;28;20040;-78
2023/05/21 04:09:20;;;;;;;0.80;0.80;;;20.30;64.10;;;;;;5033821;28;20059;-78
2023/05/21 04:11:46;;;;;;;1.25;0.90;;;20.30;64.20;;;;;;5054779;28;20048;-78
2023/05/21 04:14:11;;;;;;;0.70;0.70;;;20.30;64.20;;;;;;5056438;28;20045;-78
2023/05/21 04:16:37;;;;;;;0.75;0.75;;;20.30;64.30;;;;;;5054192;28;20047;-77
2023/05/21 04:19:03;;;;;;;1.02;0.80;;;20.20;64.20;;;;;;5058303;28;20048;-76
2023/05/21 04:21:30;;;;;;;0.82;0.82;;;20.20;64.30;;;;;;5054910;28;20047;-78
2023/05/21 04:23:56;;;;;;;1.13;1.02;;;20.30;64.60;;;;;;5052327;28;20045;-78
2023/05/21 04:26:22;;;;;;;1.35;0.90;;;20.20;64.50;;;;;;5058525;28;20082;-78
2023/05/21 04:28:49;;;;;;;0.93;0.90;;;20.20;64.70;;;;;;5039377;28;20044;-78
2023/05/21 04:31:14;;;;;;;1.83;0.63;;;20.20;64.70;;;;;;5058785;28;20157;-77
2023/05/21 04:33:44;;;;;;;1.05;0.80;;;20.20;64.80;;;;;;5054570;28;20544;-77
2023/05/21 04:36:10;;;;;;;0.70;0.70;;;20.30;64.90;;;;;;5050002;28;20045;-78
2023/05/21 04:38:37;;;;;;;0.85;0.85;;;20.20;65.00;;;;;;5045782;28;20041;-78
2023/05/21 04:41:02;;;;;;;0.77;0.68;;;20.20;65.00;;;;;;5047487;28;20533;-78
2023/05/21 04:43:28;;;;;;;1.00;0.90;;;20.20;65.10;;;;;;5060482;28;20068;-78
2023/05/21 04:45:54;;;;;;;0.82;0.82;;;20.20;65.10;;;;;;5065376;28;20037;-78
2023/05/21 04:48:26;;;;;;;0.77;0.77;;;20.20;65.10;;;;;;5061908;28;20036;-78
2023/05/21 04:50:52;;;;;;;0.75;0.73;;;20.20;65.30;;;;;;5036376;28;20440;-78
2023/05/21 04:53:18;;;;;;;1.00;1.00;;;20.20;65.30;;;;;;5067272;28;20102;-78
2023/05/21 04:55:43;;;;;;;1.15;1.10;;;20.20;65.30;;;;;;5031729;28;20462;-78
2023/05/21 04:58:12;;;;;;;0.80;0.80;;;20.20;65.30;;;;;;5052059;28;20461;-78
2023/05/21 05:00:38;;;;;;;0.50;0.50;;;20.20;65.30;;;;;;5051551;28;20049;-78
2023/05/21 05:03:04;;;;;;;0.88;0.80;;;20.20;65.30;;;;;;5052888;28;20047;-78
2023/05/21 05:05:29;;;;;;;0.60;0.60;;;20.20;66.10;;;;;;5055497;28;20071;-78
2023/05/21 05:07:56;;;;;;;0.70;0.70;;;20.20;65.30;;;;;;5049023;28;20072;-78
2023/05/21 05:10:22;;;;;;;0.93;0.63;;;20.20;65.30;;;;;;5045110;28;20049;-78
2023/05/21 05:12:48;;;;;;;1.15;1.05;;;20.20;65.40;;;;;;5046252;28;20099;-77
2023/05/21 05:15:13;;;;;;;2.47;1.65;;;20.20;63.80;;;;;;5037327;28;20051;-78
2023/05/21 05:17:39;;;;;;;2.50;1.65;;;20.00;61.30;;;;;;5046895;28;20564;-78
2023/05/21 05:20:06;;;;;;;2.35;1.98;;;19.60;58.60;;;;;;5042972;28;20049;-79
2023/05/21 05:22:32;;;;;;;4.05;1.70;;;19.40;59.00;;;;;;5050530;28;20098;-78
2023/05/21 05:24:57;;;;;;;2.35;1.63;;;19.30;58.40;;;;;;5047758;28;20036;-78
2023/05/21 05:27:23;;;;;;;3.30;1.90;;;19.10;58.40;;;;;;5046047;28;20040;-78
2023/05/21 05:29:49;;;;;;;3.42;2.33;;;19.00;58.60;;;;;;5047626;28;20858;-78
2023/05/21 05:32:14;;;;;;;4.65;2.40;;;18.80;59.20;;;;;;5051178;28;20037;-78
2023/05/21 05:34:41;;;;;;;3.55;2.28;;;18.70;59.30;;;;;;5056349;28;20051;-79
2023/05/21 05:37:07;;;;;;;3.50;2.15;;;18.70;59.40;;;;;;5040374;28;20059;-79
2023/05/21 05:39:32;;;;;;;5.95;2.80;;;18.70;59.60;;;;;;5046257;28;20545;-79
2023/05/21 05:41:58;;;;;;;5.13;2.40;;;18.70;59.40;;;;;;5043687;28;20040;-79
2023/05/21 05:44:23;;;;;;;6.57;2.95;;;18.70;59.50;;;;;;5050916;28;20041;-79
2023/05/21 05:46:49;;;;;;;4.65;2.13;;;18.70;59.70;;;;;;5050243;28;20036;-78
2023/05/21 05:49:14;;;;;;;4.30;2.45;;;18.80;59.60;;;;;;5049321;28;20578;-77
2023/05/21 05:51:40;;;;;;;4.93;2.47;;;18.70;60.00;;;;;;5046617;28;20045;-78
2023/05/21 05:54:06;;;;;;;4.53;2.50;;;18.50;60.30;;;;;;5048204;28;20033;-78
2023/05/21 05:56:31;;;;;;;4.65;2.47;;;18.50;60.50;;;;;;5046166;28;20094;-78
2023/05/21 05:58:58;;;;;;;5.75;2.42;;;18.60;60.50;;;;;;5045835;28;20638;-79
2023/05/21 06:01:24;;;;;;;4.32;2.50;;;18.40;60.90;;;;;;5056219;28;20117;-78
2023/05/21 06:03:50;;;;;;;4.93;2.67;;;18.30;61.30;;;;;;5048386;28;20041;-79
2023/05/21 06:06:16;;;;;;;3.90;2.20;;;18.30;61.50;;;;;;5049074;28;20040;-78
2023/05/21 06:08:42;;;;;;;5.03;2.60;;;18.30;61.60;;;;;;5048158;28;20029;-78
2023/05/21 06:11:08;;;;;;;5.40;2.60;;;18.20;61.70;;;;;;5049114;28;20071;-78
2023/05/21 06:13:34;;;;;;;3.13;2.30;;;18.30;62.00;;;;;;5027174;28;20075;-78
2023/05/21 06:15:59;;;;;;;4.35;2.90;;;18.20;62.10;;;;;;5010904;28;20407;-78
2023/05/21 06:18:25;;;;;;;3.47;2.38;;;18.20;62.40;;;;;;5029178;28;20052;-78
2023/05/21 06:20:50;;;;;;;3.00;2.33;;;18.20;62.50;;;;;;5029226;28;20041;-78
2023/05/21 06:23:16;;;;;;;3.25;2.15;;;18.20;62.60;;;;;;5023953;28;20045;-78
2023/05/21 06:25:41;;;;;;;4.28;2.45;;;18.20;62.60;;;;;;5028599;28;20107;-78
2023/05/21 06:28:07;;;;;;;5.60;2.97;;;18.20;62.90;;;;;;5010509;28;20432;-78
2023/05/21 06:30:33;;;;;;;3.30;2.60;;;18.10;63.10;;;;;;5012067;28;20137;-78
2023/05/21 06:32:58;;;;;;;5.75;2.80;;;18.10;63.40;;;;;;5025046;28;20041;-78
2023/05/21 06:35:24;;;;;;;6.43;2.38;;;18.10;63.30;;;;;;5024319;28;20112;-78
2023/05/21 06:37:49;;;;;;;4.88;2.63;;;18.20;63.40;;;;;;5024590;28;20029;-78
2023/05/21 06:40:15;;;;;;;3.83;2.67;;;18.20;63.60;;;;;;5022370;28;20530;-78
2023/05/21 06:42:41;;;;;;;5.95;3.08;;;18.20;63.80;;;;;;5026593;28;20112;-78
2023/05/21 06:45:07;;;;;;;3.90;3.05;;;18.20;63.80;;;;;;5025771;28;20640;-78
2023/05/21 06:47:32;;;;;;;3.55;2.53;;;18.10;63.80;;;;;;5022800;28;20041;-78
2023/05/21 06:49:58;;;;;;;3.42;2.47;;;18.20;63.80;;;;;;5018407;28;20053;-78
2023/05/21 06:52:25;;;;;;;4.80;2.92;;;18.20;63.80;;;;;;5019191;28;20526;-79
2023/05/21 06:54:51;;;;;;;3.92;3.05;;;18.20;64.10;;;;;;5023309;28;20522;-81
2023/05/21 06:57:16;;;;;;;4.85;2.70;;;18.10;64.30;;;;;;5008222;28;20041;-78
2023/05/21 06:59:42;;;;;;;5.25;2.90;;;18.20;64.20;;;;;;5020568;28;20045;-79
2023/05/21 07:02:08;;;;;;;3.42;3.05;;;18.20;64.50;;;;;;5023933;28;20943;-78
2023/05/21 07:04:34;;;;;;;2.42;2.22;;;18.20;64.40;;;;;;5025263;28;20598;-79
2023/05/21 07:07:00;;;;;;;4.13;2.88;;;18.10;64.60;;;;;;5026295;28;20053;-80
2023/05/21 07:09:26;;;;;;;3.70;2.50;;;18.10;64.60;;;;;;5023949;28;20071;-80
2023/05/21 07:11:52;;;;;;;6.80;3.00;;;18.10;64.50;;;;;;5029868;28;20492;-80
2023/05/21 07:14:18;;;;;;;5.15;3.15;;;18.20;64.60;;;;;;5043576;28;20051;-80
2023/05/21 07:16:43;;;;;;;3.78;3.15;;;18.20;64.70;;;;;;5042742;28;20045;-83
2023/05/21 07:19:09;;;;;;;7.05;2.90;;;18.30;64.80;;;;;;5045755;28;20524;-76
2023/05/21 07:21:34;;;;;;;7.15;3.35;;;18.30;65.50;;;;;;5042602;28;20044;-81
2023/05/21 07:24:00;;;;;;;5.53;2.97;;;18.40;65.30;;;;;;5043762;28;20043;-77
2023/05/21 07:26:26;;;;;;;4.38;2.88;;;18.50;64.70;;;;;;5040711;28;20048;-78
2023/05/21 07:28:51;;;;;;;4.28;2.78;;;18.40;65.20;;;;;;5027990;28;20041;-78
2023/05/21 07:31:17;;;;;;;3.13;2.28;;;18.50;64.90;;;;;;5044760;28;20051;-77
2023/05/21 07:33:42;;;;;;;6.60;2.83;;;18.40;65.00;;;;;;5043853;28;20636;-78
2023/05/21 07:36:08;;;;;;;4.10;2.75;;;18.30;65.20;;;;;;5048972;28;20048;-77
2023/05/21 07:38:34;;;;;;;3.33;2.83;;;18.40;65.60;;;;;;5044790;28;20055;-76
2023/05/21 07:40:59;;;;;;;4.32;2.88;;;18.40;66.40;;;;;;5040181;28;20572;-77
2023/05/21 07:43:25;;;;;;;7.97;3.28;;;18.40;65.70;;;;;;5036373;28;20122;-76
2023/05/21 07:45:50;;;;;;;3.65;2.70;;;18.40;65.60;;;;;;5056454;28;20140;-77
2023/05/21 07:48:17;;;;;;;4.00;3.13;;;18.40;65.40;;;;;;5033695;28;20032;-77
2023/05/21 07:50:43;;;;;;;4.88;2.95;;;18.40;65.80;;;;;;5049316;28;20049;-78
2023/05/21 07:53:09;;;;;;;4.25;2.78;;;18.40;65.90;;;;;;5050715;28;20079;-76
2023/05/21 07:55:35;;;;;;;5.85;2.90;;;18.40;66.10;;;;;;5049420;28;20076;-77
2023/05/21 07:58:00;;;;;;;4.10;2.80;;;18.40;66.30;;;;;;5051686;28;20175;-77
2023/05/21 08:00:26;;;;;;;4.40;3.30;;;18.40;66.20;;;;;;5047310;28;20107;-77
2023/05/21 08:02:51;;;;;;;3.55;3.25;;;18.40;66.20;;;;;;5037130;28;20079;-77
2023/05/21 08:05:17;;;;;;;5.63;3.17;;;18.40;66.10;;;;;;5049657;28;20051;-76
2023/05/21 08:07:43;;;;;;;7.03;3.83;;;18.40;66.40;;;;;;5049202;28;20045;-80
2023/05/21 08:10:09;;;;;;;4.03;3.45;;;18.30;67.10;;;;;;5035238;28;20048;-80
2023/05/21 08:12:34;;;;;;;4.93;3.55;;;18.30;66.80;;;;;;5051444;28;20067;-79
2023/05/21 08:15:00;;;;;;;4.00;3.42;;;18.30;66.70;;;;;;5051276;28;20073;-79
2023/05/21 08:17:27;;;;;;;4.43;2.83;;;18.30;66.60;;;;;;5049381;28;20128;-79
2023/05/21 08:19:53;;;;;;;10.10;3.95;;;18.30;66.40;;;;;;5051373;28;20056;-80
2023/05/21 08:22:19;;;;;;;6.20;2.92;;;18.30;66.80;;;;;;5056241;28;20084;-79
2023/05/21 08:24:45;;;;;;;3.83;3.03;;;18.40;67.40;;;;;;5051921;28;20429;-78
2023/05/21 08:27:11;;;;;;;3.90;3.00;;;18.50;66.60;;;;;;5048151;28;20037;-79
2023/05/21 08:29:36;;;;;;;6.75;4.10;;;18.60;66.70;;;;;;5047881;28;20125;-79
2023/05/21 08:32:02;;;;;;;5.45;3.42;;;18.60;66.90;;;;;;5050550;28;20037;-80
2023/05/21 08:34:28;;;;;;;6.28;3.20;;;18.60;66.90;;;;;;5034927;28;20047;-78
2023/05/21 08:36:54;;;;;;;3.40;3.08;;;18.60;67.00;;;;;;5051816;28;20049;-79
2023/05/21 08:39:19;;;;;;;4.60;3.30;;;18.50;67.20;;;;;;5044334;28;20045;-78
2023/05/21 08:41:48;;;;;;;5.68;3.90;;;18.60;67.30;;;;;;5048638;28;20041;-80
2023/05/21 08:44:14;;;;;;;3.50;3.20;;;18.60;67.30;;;;;;5015330;28;20063;-79
2023/05/21 08:46:41;;;;;;;3.83;3.15;;;18.70;67.30;;;;;;5047277;28;20072;-79
2023/05/21 08:49:10;;;;;;;3.95;3.55;;;18.70;67.20;;;;;;5059170;28;20098;-80
2023/05/21 08:51:37;;;;;;;3.95;3.00;;;18.70;67.40;;;;;;5054782;28;20052;-79
2023/05/21 08:54:03;;;;;;;2.80;2.60;;;18.70;67.40;;;;;;5047299;28;20446;-79
2023/05/21 08:56:30;;;;;;;3.78;2.83;;;18.80;67.60;;;;;;5045246;28;20703;-79
2023/05/21 08:58:56;;;;;;;3.90;2.38;;;18.90;67.40;;;;;;5032456;28;20050;-81
2023/05/21 09:01:21;;;;;;;6.78;2.92;;;19.00;67.50;;;;;;5046544;28;20055;-79
2023/05/21 09:03:47;;;;;;;4.80;2.85;;;18.90;67.50;;;;;;5044309;28;20041;-81
2023/05/21 09:06:15;;;;;;;3.75;2.70;;;19.00;67.60;;;;;;5017656;28;20136;-81
2023/05/21 09:08:47;;;;;;;3.85;3.22;;;19.00;67.90;;;;;;5031524;28;20147;-80
2023/05/21 09:11:12;;;;;;;3.63;2.63;;;19.00;67.80;;;;;;5026378;28;20103;-80
2023/05/21 09:13:38;;;;;;;6.60;3.38;;;19.00;67.60;;;;;;5029019;28;20048;-79
2023/05/21 09:16:04;;;;;;;3.17;2.97;;;19.10;67.40;;;;;;5013848;28;20048;-78
2023/05/21 09:18:30;;;;;;;4.40;3.42;;;19.00;67.60;;;;;;5042334;28;20532;-78
2023/05/21 09:20:55;;;;;;;3.40;3.10;;;19.00;67.70;;;;;;5012700;28;20072;-78
2023/05/21 09:23:21;;;;;;;4.05;3.28;;;19.00;67.80;;;;;;5041479;28;20487;-76
2023/05/21 09:25:47;;;;;;;4.78;3.22;;;18.80;68.30;;;;;;5044886;28;20037;-77
2023/05/21 09:28:16;;;;;;;5.25;3.47;;;18.90;68.10;;;;;;5048491;28;20095;-76
2023/05/21 09:30:52;;;;;;;4.20;3.00;;;19.10;67.90;;;;;;5028808;28;20063;-77
2023/05/21 09:33:30;;;;;;;3.40;3.08;;;19.20;67.40;;;;;;5040215;28;20067;-76
2023/05/21 09:35:56;;;;;;;5.75;3.70;;;19.20;67.50;;;;;;5026882;28;20135;-77
2023/05/21 09:38:22;;;;;;;4.53;2.85;;;19.30;67.80;;;;;;5046597;28;20534;-79
2023/05/21 09:40:48;;;;;;;4.13;3.17;;;19.30;67.70;;;;;;5028743;28;20069;-79
2023/05/21 09:43:15;;;;;;;5.95;3.47;;;19.40;68.10;;;;;;5046003;28;20033;-81
2023/05/21 09:45:55;;;;;;;3.20;2.90;;;19.40;67.40;;;;;;5039186;28;20037;-80
2023/05/21 09:48:35;;;;;;;3.47;3.17;;;19.40;68.00;;;;;;5041630;28;20414;-78
2023/05/21 09:51:14;;;;;;;4.15;2.78;;;19.50;67.80;;;;;;5044518;28;20052;-77
2023/05/21 09:53:51;;;;;;;4.55;3.00;;;19.50;67.80;;;;;;5028966;28;20040;-78
2023/05/21 09:56:21;;;;;;;5.40;3.08;;;19.60;68.20;;;;;;5029192;28;20033;-78
2023/05/21 09:58:46;;;;;;;6.53;3.55;;;19.60;68.40;;;;;;5046016;28;20056;-82
2023/05/21 10:01:12;;;;;;;5.60;4.07;;;19.60;68.00;;;;;;5067975;28;20041;-81
2023/05/21 10:03:38;;;;;;;4.25;3.00;;;19.60;68.00;;;;;;5062360;28;20056;-82
2023/05/21 10:06:05;;;;;;;4.38;3.88;;;19.60;68.00;;;;;;5042961;28;20086;-80
2023/05/21 10:08:31;;;;;;;3.65;3.35;;;19.60;68.20;;;;;;5042374;28;20063;-81
2023/05/21 10:10:56;;;;;;;4.63;3.67;;;19.70;69.20;;;;;;5044061;28;20348;-83
2023/05/21 10:13:22;;;;;;;4.53;2.90;;;19.70;68.70;;;;;;5046740;28;20127;-83
2023/05/21 10:15:51;;;;;;;2.92;2.70;;;19.70;68.70;;;;;;5037276;28;20044;-83
2023/05/21 10:18:17;;;;;;;3.90;3.47;;;19.70;68.80;;;;;;5024704;28;20037;-83
2023/05/21 10:20:43;;;;;;;3.58;3.17;;;19.80;68.80;;;;;;5023872;28;20052;-78
2023/05/21 10:23:08;;;;;;;3.40;3.20;;;19.80;68.70;;;;;;5031606;28;20048;-79
2023/05/21 10:25:34;;;;;;;4.68;3.78;;;19.80;68.60;;;;;;5026820;28;20071;-79
2023/05/21 10:27:59;;;;;;;3.70;3.40;;;19.90;68.60;;;;;;5044039;28;20587;-82
2023/05/21 10:30:25;;;;;;;2.90;2.70;;;19.90;68.50;;;;;;5026459;28;20041;-81
2023/05/21 10:32:51;;;;;;;4.18;3.72;;;19.90;68.40;;;;;;5044184;28;20430;-83
2023/05/21 10:35:16;;;;;;;3.60;3.40;;;19.80;68.60;;;;;;5023577;28;20060;-80
2023/05/21 10:37:45;;;;;;;4.75;2.97;;;19.90;68.50;;;;;;5040746;28;20060;-82
2023/05/21 10:40:11;;;;;;;4.55;4.07;;;20.00;68.50;;;;;;5050508;28;20041;-85
2023/05/21 10:43:04;;;;;;;4.32;3.90;;;20.10;68.70;;;;;;5043271;28;20045;-81
2023/05/21 10:45:41;;;;;;;3.67;3.38;;;20.10;68.50;;;;;;5044042;28;20061;-83
2023/05/21 10:48:07;;;;;;;27.88;19.02;;;20.20;68.80;;;;;;5019344;28;20664;-76
2023/05/21 10:50:57;;;;;;;30.63;21.10;;;20.30;68.80;;;;;;5038851;28;20055;-81
2023/05/21 10:53:47;;;;;;;36.58;24.20;;;20.30;68.70;;;;;;5042843;28;20033;-80
2023/05/21 10:56:18;;;;;;;34.78;24.52;;;20.30;68.40;;;;;;5035984;28;20056;-79
2023/05/21 10:59:02;;;;;;;27.80;20.00;;;20.30;68.30;;;;;;5052507;28;20075;-80
2023/05/21 11:01:32;;;;;;;24.95;18.20;;;20.30;67.90;;;;;;5043179;28;20525;-78
2023/05/21 11:03:58;;;;;;;22.90;16.75;;;20.30;68.20;;;;;;5045916;28;20048;-80
2023/05/21 11:06:26;;;;;;;20.77;16.17;;;20.20;67.90;;;;;;5007579;28;20043;-80
2023/05/21 11:08:52;;;;;;;18.08;14.00;;;20.30;67.90;;;;;;5031085;28;20045;-79
2023/05/21 11:11:51;;;;;;;16.73;12.50;;;20.30;67.90;;;;;;5041583;28;20052;-80
2023/05/21 11:14:34;;;;;;;11.55;9.85;;;20.30;68.00;;;;;;5022701;28;20974;-81
2023/05/21 11:17:03;;;;;;;11.82;9.40;;;20.40;67.70;;;;;;5038682;28;20055;-80
2023/05/21 11:19:38;;;;;;;11.10;8.10;;;20.30;67.70;;;;;;4685451;28;10000480;-80
2023/05/21 11:22:10;;;;;;;8.63;7.35;;;20.30;67.50;;;;;;5040874;28;20655;-79
2023/05/21 11:24:40;;;;;;;7.25;6.63;;;20.30;67.20;;;;;;5038555;28;20044;-79
2023/05/21 11:27:06;;;;;;;9.07;6.90;;;20.40;67.30;;;;;;5036355;28;20052;-79
2023/05/21 11:29:43;;;;;;;9.50;6.45;;;20.30;67.20;;;;;;5042641;28;20049;-85
2023/05/21 11:32:10;;;;;;;8.65;6.82;;;20.40;67.30;;;;;;5035864;28;20259;-84
2023/05/21 11:34:39;;;;;;;11.98;8.18;;;20.50;67.90;;;;;;5007056;28;20502;-84
2023/05/21 11:37:19;;;;;;;10.48;8.52;;;20.50;67.80;;;;;;5005407;28;20068;-82
2023/05/21 11:39:45;;;;;;;13.48;8.13;;;20.60;67.80;;;;;;5038136;28;20059;-81
2023/05/21 11:42:10;;;;;;;10.45;8.32;;;20.60;68.20;;;;;;5005876;28;20041;-83
2023/05/21 11:44:43;;;;;;;11.25;10.18;;;20.60;67.80;;;;;;5038214;28;20041;-80
2023/05/21 11:47:10;;;;;;;21.77;19.42;;;20.70;68.80;;;;;;5026512;28;20199;-81
2023/05/21 11:49:36;;;;;;;406.85;278.67;;;20.90;69.20;;;;;;5040455;28;20526;-78
2023/05/21 11:52:02;;;;;;;455.35;265.42;;;20.90;69.60;;;;;;5044608;28;20203;-75
2023/05/21 11:54:32;;;;;;;485.38;260.77;;;20.90;68.70;;;;;;5038497;28;20518;-76
2023/05/21 11:56:58;;;;;;;484.17;252.73;;;20.90;68.90;;;;;;5034890;28;20045;-76
2023/05/21 11:59:24;;;;;;;362.48;198.25;;;20.90;67.60;;;;;;5038881;28;20115;-80
2023/05/21 12:01:50;;;;;;;196.70;101.57;;;20.90;67.40;;;;;;5039424;28;20571;-79
2023/05/21 12:04:16;;;;;;;119.72;61.47;;;20.90;67.60;;;;;;5038886;28;20053;-78
2023/05/21 12:06:41;;;;;;;77.47;40.75;;;21.00;67.30;;;;;;5036820;28;20041;-77
2023/05/21 12:09:10;;;;;;;51.75;28.30;;;20.90;67.00;;;;;;5031224;28;20049;-80
2023/05/21 12:11:40;;;;;;;42.47;24.10;;;20.90;66.90;;;;;;5040980;28;20075;-78
2023/05/21 12:14:11;;;;;;;25.98;16.50;;;20.90;67.20;;;;;;5028633;28;20041;-75
2023/05/21 12:16:38;;;;;;;20.38;13.00;;;20.80;66.60;;;;;;5034757;28;20059;-77
2023/05/21 12:19:04;;;;;;;20.80;13.75;;;20.90;67.40;;;;;;5041298;28;20128;-78
2023/05/21 12:21:30;;;;;;;29.00;14.50;;;20.90;67.70;;;;;;5035382;28;20483;-78
2023/05/21 12:23:56;;;;;;;15.82;11.63;;;20.90;68.40;;;;;;5053731;28;20091;-77
2023/05/21 12:26:24;;;;;;;17.88;11.70;;;20.90;67.10;;;;;;5025415;28;20526;-77
2023/05/21 12:28:51;;;;;;;15.15;9.38;;;20.90;67.10;;;;;;5021502;28;20478;-79
2023/05/21 12:31:17;;;;;;;15.95;10.10;;;20.80;67.00;;;;;;5058035;28;20048;-76
2023/05/21 12:33:51;;;;;;;17.48;10.00;;;20.80;67.50;;;;;;5041380;28;20048;-79
2023/05/21 12:36:36;;;;;;;19.70;12.00;;;20.80;68.00;;;;;;5036491;28;20036;-83
2023/05/21 12:39:02;;;;;;;20.63;12.68;;;20.90;68.30;;;;;;5040388;28;20072;-83
2023/05/21 12:41:28;;;;;;;19.67;12.52;;;20.90;68.40;;;;;;5046164;28;20847;-86